Time;durP1;ratioP1;P1;durP2;ratioP2;P2;SDS_P1;SDS_P2;PMS_P1;PMS_P2;Temp;Humidity;BMP_temperature;BMP_pressure;BME280_temperature;BME280_humidity;BME280_pressure;Samples;Min_cycle;Max_cycle;Signal;HPM_P1;HPM_P2
2021/10/17 05:43:26;;;;;;;33.50;17.25;;;;;;;2.13;91.04;99587.44;4546303;75;23366;-82
2021/10/17 05:49:33;;;;;;;33.70;16.65;;;;;;;2.23;91.88;99598.56;4514427;77;21077;-82
2021/10/17 05:55:39;;;;;;;33.38;18.25;;;;;;;2.62;92.20;99596.00;4518622;77;20990;-82
2021/10/17 06:01:42;;;;;;;36.05;19.95;;;;;;;2.99;92.14;99603.14;4513455;77;21485;-80
2021/10/17 06:07:48;;;;;;;35.13;17.12;;;;;;;3.15;91.82;99608.95;4456891;77;32041;-83
2021/10/17 06:13:50;;;;;;;33.58;16.57;;;;;;;3.35;92.02;99609.77;4213172;82;21026;-81
2021/10/17 06:19:54;;;;;;;33.55;16.23;;;;;;;3.49;91.69;99611.81;4247020;82;21006;-81
2021/10/17 06:25:57;;;;;;;27.98;15.05;;;;;;;3.74;92.02;99616.51;4221572;82;21141;-81
2021/10/17 06:31:59;;;;;;;26.87;15.78;;;;;;;4.02;91.87;99620.55;4244533;82;21148;-81
2021/10/17 06:38:00;;;;;;;29.95;16.73;;;;;;;4.12;91.66;99619.45;4238068;82;21508;-80
2021/10/17 06:44:05;;;;;;;36.77;18.17;;;;;;;4.43;91.84;99624.16;4237840;82;21087;-82
2021/10/17 06:50:09;;;;;;;;;;;;;;;4.78;91.41;99621.09;4240018;82;21118;-81
2021/10/17 06:56:16;;;;;;;31.27;16.65;;;;;;;5.01;90.94;99625.77;4235951;83;20209;-83
2021/10/17 07:02:20;;;;;;;30.45;13.93;;;;;;;5.22;91.12;99623.13;4232720;82;21085;-81
2021/10/17 07:08:22;;;;;;;27.02;14.18;;;;;;;5.54;90.60;99626.62;4244189;83;21167;-81
2021/10/17 07:14:25;;;;;;;23.12;12.70;;;;;;;5.87;90.89;99629.73;4234664;83;21055;-84
2021/10/17 07:20:31;;;;;;;27.97;13.87;;;;;;;6.41;90.95;99626.58;4227869;83;21042;-81
2021/10/17 07:26:37;;;;;;;28.80;15.53;;;;;;;6.85;89.80;99634.04;4229601;82;21505;-81
2021/10/17 07:32:40;;;;;;;24.67;13.10;;;;;;;7.16;89.20;99634.36;4240902;82;21516;-82
2021/10/17 07:38:43;;;;;;;23.15;12.68;;;;;;;7.64;89.08;99631.70;4233273;82;21063;-81
2021/10/17 07:44:44;;;;;;;22.00;10.23;;;;;;;8.14;87.96;99631.36;4191580;83;22354;-83
2021/10/17 07:50:49;;;;;;;20.45;11.97;;;;;;;8.33;87.47;99635.64;4191911;83;21539;-81
2021/10/17 07:56:51;;;;;;;24.98;11.88;;;;;;;8.19;87.37;99629.73;4193019;83;21005;-81
2021/10/17 08:02:56;;;;;;;28.42;13.32;;;;;;;8.64;87.28;99629.55;4200186;83;21038;-83
2021/10/17 08:09:03;;;;;;;19.92;12.18;;;;;;;8.85;86.23;99626.03;4183598;83;21053;-81
2021/10/17 08:15:07;;;;;;;32.00;15.15;;;;;;;9.22;86.26;99626.87;4208482;83;21101;-81
2021/10/17 08:21:08;;;;;;;27.95;13.88;;;;;;;9.77;85.58;99625.14;4198011;83;21467;-82
2021/10/17 08:27:14;;;;;;;23.57;12.70;;;;;;;10.60;85.46;99626.87;4169877;83;21066;-81
2021/10/17 08:33:18;;;;;;;23.65;12.23;;;;;;;11.85;85.37;99625.48;4210199;83;21746;-82
2021/10/17 08:39:20;;;;;;;22.27;12.98;;;;;;;12.91;83.57;99628.53;4211645;83;21099;-81
2021/10/17 08:45:25;;;;;;;21.00;12.07;;;;;;;13.54;82.10;99628.44;4223445;83;21332;-82
2021/10/17 08:51:29;;;;;;;26.42;13.90;;;;;;;13.98;81.50;99624.48;4234045;80;45887;-83
2021/10/17 08:57:36;;;;;;;21.23;12.70;;;;;;;14.37;79.85;99626.74;4303022;81;21148;-81
2021/10/17 09:03:38;;;;;;;23.60;12.95;;;;;;;15.24;78.87;99613.31;4222128;83;21074;-82
2021/10/17 09:09:41;;;;;;;21.00;12.35;;;;;;;15.56;77.51;99618.34;4224083;83;21073;-82
2021/10/17 09:15:46;;;;;;;15.30;8.40;;;;;;;16.30;76.16;99614.13;4224629;83;20986;-83
2021/10/17 09:22:11;;;;;;;14.28;8.40;;;;;;;16.97;75.04;99621.66;4300869;81;21065;-84
2021/10/17 09:28:23;;;;;;;12.60;6.30;;;;;;;17.45;71.89;99622.38;4297979;81;21093;-81
2021/10/17 09:34:31;;;;;;;14.07;6.15;;;;;;;17.37;70.48;99617.47;4301413;81;21081;-82
2021/10/17 09:40:34;;;;;;;6.70;2.90;;;;;;;17.71;67.83;99612.90;4307089;80;21160;-82
2021/10/17 09:46:59;;;;;;;5.47;4.03;;;;;;;17.66;66.94;99608.41;4241078;82;21124;-82
2021/10/17 09:53:07;;;;;;;6.17;3.42;;;;;;;17.50;65.27;99609.51;4170401;84;21017;-82
2021/10/17 09:59:12;;;;;;;7.58;2.55;;;;;;;16.49;64.15;99601.91;4161932;84;21057;-82
2021/10/17 10:05:29;;;;;;;8.10;4.00;;;;;;;15.56;63.19;99599.61;4236942;82;21018;-81
2021/10/17 10:11:33;;;;;;;5.63;3.33;;;;;;;14.62;63.15;99602.87;4226943;83;21168;-82
2021/10/17 10:17:41;;;;;;;5.28;2.42;;;;;;;14.61;62.88;99598.55;4227585;83;21024;-84
2021/10/17 10:23:45;;;;;;;8.15;3.00;;;;;;;14.30;61.52;99586.17;4217102;82;21098;-81
2021/10/17 10:29:49;;;;;;;5.85;3.33;;;;;;;13.99;61.14;99583.99;4214914;83;21108;-82
2021/10/17 10:36:13;;;;;;;7.35;2.95;;;;;;;14.09;60.39;99593.69;4200575;83;21102;-81
2021/10/17 10:42:17;;;;;;;4.58;2.85;;;;;;;14.06;59.04;99593.08;4225103;83;21039;-82
2021/10/17 10:48:22;;;;;;;6.55;3.35;;;;;;;13.93;59.28;99588.28;4225930;83;21067;-81
2021/10/17 10:54:31;;;;;;;6.17;3.02;;;;;;;13.69;58.20;99579.24;4324730;81;21017;-81
2021/10/17 11:00:34;;;;;;;7.22;3.00;;;;;;;13.49;58.27;99584.20;4321540;81;21104;-82
2021/10/17 11:06:37;;;;;;;7.25;3.47;;;;;;;13.37;58.47;99579.57;4317251;81;21060;-83
2021/10/17 11:12:43;;;;;;;6.85;3.15;;;;;;;13.16;58.26;99569.16;4316373;81;21010;-82
2021/10/17 11:18:45;;;;;;;7.12;3.30;;;;;;;12.98;57.61;99568.17;4323774;81;21146;-81
2021/10/17 11:24:53;;;;;;;6.50;3.42;;;;;;;12.97;57.46;99571.27;4320030;81;21069;-81
2021/10/17 11:31:05;;;;;;;5.12;3.20;;;;;;;12.93;57.56;99564.39;4320973;81;20999;-82
2021/10/17 11:37:26;;;;;;;6.58;3.65;;;;;;;12.77;57.42;99561.63;4315754;81;21064;-83
2021/10/17 11:43:40;;;;;;;10.03;3.40;;;;;;;12.78;56.82;99553.62;4315796;81;21081;-82
2021/10/17 11:49:42;;;;;;;6.42;3.40;;;;;;;12.54;56.60;99539.20;4315276;81;21156;-82
2021/10/17 11:55:47;;;;;;;8.70;3.50;;;;;;;12.22;54.89;99539.41;4317002;81;21056;-81
2021/10/17 12:01:49;;;;;;;6.08;3.40;;;;;;;12.27;55.78;99529.48;4319589;81;21065;-81
2021/10/17 12:07:55;;;;;;;15.78;6.47;;;;;;;12.26;55.47;99519.64;4323419;81;21005;-81
2021/10/17 12:13:57;;;;;;;9.35;4.28;;;;;;;12.18;54.97;99512.48;4316978;81;21315;-81
2021/10/17 12:20:14;;;;;;;9.88;4.05;;;;;;;12.14;55.51;99499.88;4317731;81;21065;-81
2021/10/17 12:26:26;;;;;;;8.08;3.30;;;;;;;12.16;55.98;99491.50;4321474;81;21041;-83
2021/10/17 12:32:47;;;;;;;5.97;3.50;;;;;;;12.12;55.31;99502.99;4321322;80;21549;-82
2021/10/17 12:39:00;;;;;;;7.05;2.92;;;;;;;12.03;54.72;99492.09;4320675;81;21042;-82
2021/10/17 12:45:09;;;;;;;7.33;3.15;;;;;;;11.96;55.49;99494.75;4313974;81;21085;-82
2021/10/17 12:51:37;;;;;;;4.42;3.60;;;;;;;12.08;55.32;99489.02;4317470;81;21109;-82
2021/10/17 12:57:38;;;;;;;5.67;3.00;;;;;;;12.15;55.91;99481.66;4313160;81;21881;-81
2021/10/17 13:03:40;;;;;;;5.45;3.60;;;;;;;12.15;55.33;99483.03;4316267;81;21053;-82
2021/10/17 13:09:52;;;;;;;8.18;3.35;;;;;;;12.05;55.38;99480.16;4321206;81;21482;-82
2021/10/17 13:15:55;;;;;;;8.95;3.90;;;;;;;12.03;55.56;99477.80;4320094;81;21076;-82
2021/10/17 13:21:56;;;;;;;7.08;3.75;;;;;;;11.98;55.70;99484.20;4317688;81;21101;-82
2021/10/17 13:28:00;;;;;;;7.05;4.12;;;;;;;11.93;55.81;99488.64;4319543;81;22126;-81
2021/10/17 13:34:02;;;;;;;9.05;3.80;;;;;;;11.94;55.68;99481.41;4312241;81;21096;-82
2021/10/17 13:40:07;;;;;;;8.75;4.33;;;;;;;11.94;55.77;99481.41;4287904;81;22065;-82
2021/10/17 13:46:08;;;;;;;8.28;4.12;;;;;;;11.91;55.78;99478.03;4320516;81;21010;-83
2021/10/17 13:52:10;;;;;;;6.30;3.70;;;;;;;11.98;56.14;99465.77;4318045;81;21594;-82
2021/10/17 13:58:12;;;;;;;7.78;4.40;;;;;;;11.86;55.76;99459.73;4318841;80;21053;-81
2021/10/17 14:04:14;;;;;;;9.80;4.78;;;;;;;11.72;55.67;99459.53;4298724;81;21081;-81
2021/10/17 14:10:21;;;;;;;10.08;4.67;;;;;;;11.62;55.75;99449.97;4319048;81;21100;-81
2021/10/17 14:16:22;;;;;;;9.73;4.67;;;;;;;11.45;56.33;99459.33;4321185;81;21097;-81
2021/10/17 14:22:26;;;;;;;7.97;5.47;;;;;;;11.28;56.35;99458.45;4317650;81;21094;-81
2021/10/17 14:28:28;;;;;;;8.73;4.17;;;;;;;11.20;56.56;99452.68;4328193;81;21055;-82
2021/10/17 14:34:30;;;;;;;10.78;4.90;;;;;;;11.03;57.03;99453.95;4322543;81;21097;-82
2021/10/17 14:40:33;;;;;;;12.07;5.53;;;;;;;10.93;57.40;99460.84;4320153;81;21058;-82
2021/10/17 14:46:35;;;;;;;10.15;5.80;;;;;;;10.87;57.50;99466.98;4277623;81;21081;-81
2021/10/17 14:52:41;;;;;;;11.40;6.33;;;;;;;10.81;57.77;99458.29;4310578;81;20991;-81
2021/10/17 14:58:42;;;;;;;9.83;5.47;;;;;;;10.70;58.13;99466.09;4310991;81;21061;-81
2021/10/17 15:04:44;;;;;;;16.50;7.00;;;;;;;10.63;58.32;99468.13;4306986;81;21064;-81
2021/10/17 15:10:48;;;;;;;13.08;6.53;;;;;;;10.49;58.20;99476.08;4304356;81;21085;-81
2021/10/17 15:16:51;;;;;;;12.33;6.80;;;;;;;10.35;58.77;99483.24;4307887;81;21720;-83
2021/10/17 15:22:53;;;;;;;12.63;6.37;;;;;;;10.26;59.24;99484.81;4298896;81;21002;-82
2021/10/17 15:28:56;;;;;;;15.95;6.97;;;;;;;10.15;59.54;99487.14;4304104;81;21017;-82
2021/10/17 15:34:58;;;;;;;13.83;7.65;;;;;;;9.95;60.45;99488.23;4308059;81;21069;-81
2021/10/17 15:41:00;;;;;;;16.95;8.15;;;;;;;9.75;60.18;99498.92;4279602;81;21160;-81
2021/10/17 15:47:02;;;;;;;20.27;8.55;;;;;;;9.54;60.64;99504.14;4260441;82;21076;-81
2021/10/17 15:53:04;;;;;;;16.23;8.10;;;;;;;9.23;61.06;99503.38;4234664;82;21533;-83
2021/10/17 15:59:06;;;;;;;17.77;7.87;;;;;;;8.90;61.74;99512.48;4265347;82;21078;-82
2021/10/17 16:05:08;;;;;;;28.07;12.60;;;;;;;8.55;62.54;99530.08;4254620;82;21056;-82
2021/10/17 16:11:10;;;;;;;37.65;17.67;;;;;;;8.30;63.06;99534.05;4255271;81;21585;-82
2021/10/17 16:17:11;;;;;;;37.80;18.50;;;;;;;8.13;63.40;99541.71;4191906;83;21950;-81
2021/10/17 16:23:14;;;;;;;45.52;26.85;;;;;;;7.85;63.83;99543.81;4118017;84;21063;-81
2021/10/17 16:29:18;;;;;;;89.80;45.75;;;;;;;7.63;64.33;99554.38;4241495;83;21429;-82
2021/10/17 16:35:20;;;;;;;138.75;54.10;;;;;;;7.39;64.91;99544.28;4241240;83;21081;-82
2021/10/17 16:41:22;;;;;;;187.43;63.00;;;;;;;7.21;65.34;99545.66;4127399;81;9999997;-82
2021/10/17 16:47:23;;;;;;;151.82;59.40;;;;;;;7.15;65.85;99547.02;4237812;82;21493;-82
2021/10/17 16:53:26;;;;;;;86.37;38.25;;;;;;;7.04;66.42;99543.14;4233241;81;21620;-82
2021/10/17 16:59:28;;;;;;;56.90;22.42;;;;;;;6.97;66.64;99546.20;4259008;82;21539;-82
2021/10/17 17:05:32;;;;;;;97.20;29.30;;;;;;;6.91;67.58;99543.44;4260529;82;21041;-82
2021/10/17 17:11:34;;;;;;;75.08;25.12;;;;;;;6.93;67.84;99550.70;4259015;82;21072;-82
2021/10/17 17:17:37;;;;;;;55.28;23.80;;;;;;;6.97;68.42;99551.05;4175379;83;21117;-83
2021/10/17 17:23:40;;;;;;;59.45;26.80;;;;;;;7.04;69.11;99548.59;4184950;84;22018;-84
2021/10/17 17:29:44;;;;;;;32.85;18.05;;;;;;;7.08;69.88;99545.41;4090351;85;21029;-82
2021/10/17 17:35:45;;;;;;;37.15;20.60;;;;;;;7.09;70.45;99540.77;4128804;84;21089;-82
2021/10/17 17:41:47;;;;;;;50.50;27.87;;;;;;;7.10;70.99;99547.23;4146974;84;21039;-82
2021/10/17 17:47:49;;;;;;;62.78;31.77;;;;;;;7.13;71.50;99555.27;4231887;82;21026;-82
2021/10/17 17:53:52;;;;;;;58.98;32.10;;;;;;;7.04;71.55;99552.67;4252802;84;21586;-83
2021/10/17 17:59:55;;;;;;;71.92;36.98;;;;;;;6.99;72.37;99552.88;4213307;82;21062;-82
2021/10/17 18:05:57;;;;;;;74.25;36.23;;;;;;;6.98;72.10;99547.22;4220183;82;21499;-82
2021/10/17 18:11:59;;;;;;;68.72;33.28;;;;;;;7.04;72.78;99544.50;4208846;83;21118;-82
2021/10/17 18:18:00;;;;;;;56.65;32.42;;;;;;;7.14;72.95;99515.45;4098265;83;10000412;-83
2021/10/17 18:24:02;;;;;;;57.62;30.80;;;;;;;7.14;72.95;99515.45;4201600;82;22095;-82
2021/10/17 18:30:05;;;;;;;54.73;29.67;;;;;;;7.16;73.51;99539.62;4225634;82;21057;-81
2021/10/17 18:36:07;;;;;;;62.35;31.50;;;;;;;7.00;73.59;99538.13;4210582;83;21010;-82
2021/10/17 18:42:09;;;;;;;61.65;33.25;;;;;;;6.92;74.02;99549.91;4220744;82;21058;-82
2021/10/17 18:48:11;;;;;;;60.40;33.53;;;;;;;7.05;74.51;99543.36;4255880;82;20998;-82
2021/10/17 18:54:14;;;;;;;68.05;33.13;;;;;;;6.98;74.60;99551.86;4245534;82;21013;-82
2021/10/17 19:00:16;;;;;;;67.80;33.55;;;;;;;6.88;75.04;99555.80;4243461;82;21575;-82
2021/10/17 19:06:18;;;;;;;69.03;34.00;;;;;;;6.75;75.27;99557.48;4259371;82;20974;-81
2021/10/17 19:12:19;;;;;;;78.28;37.15;;;;;;;6.87;75.71;99552.06;4251823;82;21033;-83
2021/10/17 19:18:23;;;;;;;83.03;40.28;;;;;;;7.05;76.17;99550.16;4253588;82;22041;-82
2021/10/17 19:24:25;;;;;;;70.32;38.38;;;;;;;7.11;76.14;99554.25;4243599;82;21050;-81
2021/10/17 19:30:27;;;;;;;71.30;34.93;;;;;;;7.03;76.47;99555.73;4239389;82;20998;-82
2021/10/17 19:36:29;;;;;;;80.32;36.80;;;;;;;6.97;76.65;99565.25;4238442;82;21113;-82
2021/10/17 19:42:30;;;;;;;83.22;38.75;;;;;;;7.04;76.89;99568.20;4121194;82;10000513;-81
2021/10/17 19:48:32;;;;;;;83.35;40.98;;;;;;;7.06;77.16;99570.02;4226268;81;21941;-84
2021/10/17 19:54:34;;;;;;;83.85;40.45;;;;;;;6.94;77.06;99578.95;4216045;83;21054;-81
2021/10/17 20:00:37;;;;;;;88.45;41.60;;;;;;;6.93;77.43;99585.53;4244000;83;21486;-82
2021/10/17 20:06:39;;;;;;;84.47;41.00;;;;;;;6.92;77.32;99588.01;4220247;83;20972;-81
2021/10/17 20:12:40;;;;;;;87.20;43.10;;;;;;;6.99;77.66;99587.46;4238043;82;21034;-82
2021/10/17 20:18:43;;;;;;;87.17;44.30;;;;;;;7.05;77.79;99590.19;4235877;83;21622;-81
2021/10/17 20:24:45;;;;;;;82.33;42.67;;;;;;;6.98;77.96;99592.69;4237067;83;21006;-82
2021/10/17 20:30:49;;;;;;;91.15;44.93;;;;;;;6.86;78.14;99600.24;4248219;83;21066;-82
2021/10/17 20:36:54;;;;;;;83.03;44.33;;;;;;;6.76;78.20;99600.68;4239941;83;21089;-81
2021/10/17 20:42:58;;;;;;;84.32;44.38;;;;;;;6.85;78.42;99600.58;4231086;81;21573;-84
2021/10/17 20:48:59;;;;;;;75.35;42.43;;;;;;;6.94;78.44;99600.72;4233955;82;21072;-83
2021/10/17 20:55:00;;;;;;;81.22;43.98;;;;;;;6.98;78.54;99592.69;4238494;83;21069;-82
2021/10/17 21:01:02;;;;;;;76.87;40.83;;;;;;;6.95;78.66;99594.72;4257777;82;21043;-84
2021/10/17 21:07:06;;;;;;;81.37;45.80;;;;;;;6.90;78.90;99591.66;4267900;82;21029;-81
2021/10/17 21:13:07;;;;;;;90.80;50.03;;;;;;;6.80;78.77;99593.42;4259179;82;21092;-82
2021/10/17 21:19:09;;;;;;;86.45;48.33;;;;;;;6.74;79.45;99593.41;4257596;82;21018;-81
2021/10/17 21:25:10;;;;;;;82.70;45.20;;;;;;;6.83;79.97;99585.95;4258350;81;21534;-81
2021/10/17 21:31:12;;;;;;;91.42;48.08;;;;;;;6.89;79.78;99585.19;4259915;81;21065;-82
2021/10/17 21:37:14;;;;;;;91.67;45.65;;;;;;;6.93;79.88;99582.81;4193477;83;21113;-81
2021/10/17 21:43:15;;;;;;;86.97;46.33;;;;;;;6.94;80.18;99586.34;4112650;85;21164;-82
2021/10/17 21:49:16;;;;;;;91.67;46.60;;;;;;;6.94;80.25;99584.39;4243854;82;21069;-83
2021/10/17 21:55:18;;;;;;;86.35;45.20;;;;;;;6.91;80.47;99578.81;4233378;83;21029;-81
2021/10/17 22:01:20;;;;;;;92.12;46.68;;;;;;;6.97;80.54;99585.66;4242162;83;21050;-81
2021/10/17 22:07:22;;;;;;;87.95;44.67;;;;;;;6.93;80.55;99589.61;4237049;83;21005;-81
2021/10/17 22:13:26;;;;;;;75.70;38.35;;;;;;;6.88;80.80;99596.63;4234685;83;21001;-81
2021/10/17 22:19:27;;;;;;;77.10;39.35;;;;;;;6.87;80.35;99597.77;4182656;83;21022;-84
2021/10/17 22:25:29;;;;;;;69.10;38.60;;;;;;;6.80;80.74;99592.62;4140462;84;21081;-82
2021/10/17 22:31:31;;;;;;;71.80;38.35;;;;;;;6.72;80.97;99593.52;4126016;84;21017;-84
2021/10/17 22:37:32;;;;;;;68.37;35.20;;;;;;;6.77;81.07;99598.73;4187689;84;21083;-82
2021/10/17 22:43:33;;;;;;;67.35;35.88;;;;;;;6.78;81.31;99599.76;4112243;85;21056;-84
2021/10/17 22:49:35;;;;;;;69.03;37.20;;;;;;;6.70;81.20;99592.50;4175979;84;21052;-82
2021/10/17 22:55:36;;;;;;;69.82;37.83;;;;;;;6.59;81.58;99591.33;4122078;85;21669;-82
2021/10/17 23:01:39;;;;;;;68.17;36.28;;;;;;;6.70;81.96;99589.78;4132972;85;21045;-82
2021/10/17 23:07:41;;;;;;;62.20;32.15;;;;;;;6.72;82.08;99592.16;4249928;83;21107;-81
2021/10/17 23:13:44;;;;;;;57.70;30.17;;;;;;;6.64;81.95;99598.48;4245412;82;21073;-81
2021/10/17 23:19:45;;;;;;;52.05;28.80;;;;;;;6.71;82.20;99604.96;4248489;83;21469;-82
2021/10/17 23:25:47;;;;;;;58.45;30.32;;;;;;;6.80;82.13;99608.95;4236972;83;21085;-81
2021/10/17 23:31:49;;;;;;;57.73;30.70;;;;;;;6.79;82.26;99613.61;4258009;82;21053;-81
2021/10/17 23:37:51;;;;;;;65.10;32.23;;;;;;;6.73;82.25;99613.59;4263265;82;21132;-80
2021/10/17 23:43:56;;;;;;;58.13;33.70;;;;;;;6.55;82.05;99617.58;4252791;82;21115;-81
2021/10/17 23:49:59;;;;;;;63.95;35.03;;;;;;;6.55;82.31;99620.30;4246888;82;21057;-81
2021/10/17 23:56:00;;;;;;;66.30;36.25;;;;;;;6.56;82.53;99623.27;4246888;83;21014;-82
